This is the latest recevied weather packets stored in our database for station/object KI6SYE. If no packets are shown the sender has not sent any weather packets the latest 10 day(s).
| Time | Temp. | Humidity | Pressure | Rain* | Wind** | Luminosity | Snow |
|---|---|---|---|---|---|---|---|
| 1788199915 | 22.78° C | 80% | 1014.1 hPa | 0 mm | - | 661 W/m² | - |
| 1788199610 | 23.33° C | 78% | 1014.1 hPa | 0 mm | - | 652 W/m² | - |
| 1788199306 | 23.33° C | 79% | 1014.2 hPa | 0 mm | - | 644 W/m² | - |
| 1788199006 | 23.33° C | 79% | 1014 hPa | 0 mm | - | 632 W/m² | - |
| 1788198703 | 22.78° C | 80% | 1013.7 hPa | 0 mm | - | 626 W/m² | - |
| 1788198403 | 23.33° C | 79% | 1014 hPa | 0 mm | - | 616 W/m² | - |
| 1788198098 | 23.33° C | 78% | 1013.9 hPa | 0 mm | - | 604 W/m² | - |
| 1788197801 | 23.33° C | 79% | 1014 hPa | 0 mm | - | 593 W/m² | - |
| 1788197492 | 23.33° C | 78% | 1013.9 hPa | 0 mm | - | 585 W/m² | - |
| 1788197187 | 22.78° C | 80% | 1014 hPa | 0 mm | - | 572 W/m² | - |
| 1788196887 | 23.33° C | 79% | 1014.1 hPa | 0 mm | - | 564 W/m² | - |
| 1788196582 | 22.78° C | 80% | 1014 hPa | 0 mm | - | 549 W/m² | - |
| 1788196280 | 22.78° C | 81% | 1013.6 hPa | 0 mm | - | 532 W/m² | - |
| 1788195975 | 22.78° C | 80% | 1013.8 hPa | 0 mm | - | 523 W/m² | - |
| 1788195673 | 22.78° C | 81% | 1013.9 hPa | 0 mm | - | 517 W/m² | - |
| 1788195368 | 22.78° C | 81% | 1013.7 hPa | 0 mm | - | 243 W/m² | - |
| 1788195064 | 22.78° C | 82% | 1013.7 hPa | 0 mm | - | 555 W/m² | - |
| 1788194759 | 22.22° C | 82% | 1013.8 hPa | 0 mm | - | 285 W/m² | - |
| 1788194455 | 22.78° C | 82% | 1013.7 hPa | 0 mm | - | 218 W/m² | - |
| 1788194150 | 23.33° C | 80% | 1013.6 hPa | 0 mm | - | 245 W/m² | - |
| 1788193846 | 23.89° C | 78% | 1013.6 hPa | 0 mm | - | 526 W/m² | - |
| 1788193544 | 24.44° C | 74% | 1013.5 hPa | 0 mm | - | 487 W/m² | - |
| 1788193243 | 23.89° C | 77% | 1013.5 hPa | 0 mm | - | 451 W/m² | - |
| 1788192939 | 23.89° C | 77% | 1013.4 hPa | 0 mm | - | 261 W/m² | - |
| 1788192635 | 23.89° C | 77% | 1013.5 hPa | 0 mm | - | 253 W/m² | - |
* Rain latest hour (hover to see other rain measurements)
** Current wind speed in m/s (hover to see current wind gust speed)